sensor_id;sensor_type;location;lat;lon;timestamp;pressure;altitude;pressure_sealevel;temperature;humidity
19795;BME280;10057;59.402;17.866;2023-01-26T00:01:18;101240.66;;;4.66;88.80
19795;BME280;10057;59.402;17.866;2023-01-26T00:03:46;101234.53;;;4.65;88.84
19795;BME280;10057;59.402;17.866;2023-01-26T00:06:16;101232.78;;;4.64;89.13
19795;BME280;10057;59.402;17.866;2023-01-26T00:08:45;101234.53;;;4.65;89.19
19795;BME280;10057;59.402;17.866;2023-01-26T00:11:15;101238.00;;;4.67;88.94
19795;BME280;10057;59.402;17.866;2023-01-26T00:13:42;101234.53;;;4.65;89.32
19795;BME280;10057;59.402;17.866;2023-01-26T00:16:12;101230.16;;;4.63;89.09
19795;BME280;10057;59.402;17.866;2023-01-26T00:18:39;101226.66;;;4.64;88.98
19795;BME280;10057;59.402;17.866;2023-01-26T00:21:08;101238.03;;;4.64;88.78
19795;BME280;10057;59.402;17.866;2023-01-26T00:23:37;101237.16;;;4.64;89.43
19795;BME280;10057;59.402;17.866;2023-01-26T00:26:12;101236.28;;;4.63;89.12
19795;BME280;10057;59.402;17.866;2023-01-26T00:28:39;101234.53;;;4.64;89.28
19795;BME280;10057;59.402;17.866;2023-01-26T00:31:11;101243.31;;;4.63;89.04
19795;BME280;10057;59.402;17.866;2023-01-26T00:33:38;101241.53;;;4.63;88.99
19795;BME280;10057;59.402;17.866;2023-01-26T00:36:05;101231.03;;;4.63;89.59
19795;BME280;10057;59.402;17.866;2023-01-26T00:38:32;101237.16;;;4.65;89.17
19795;BME280;10057;59.402;17.866;2023-01-26T00:40:59;101246.78;;;4.66;89.23
19795;BME280;10057;59.402;17.866;2023-01-26T00:43:26;101253.78;;;4.67;89.70
19795;BME280;10057;59.402;17.866;2023-01-26T00:45:53;101244.16;;;4.69;89.19
19795;BME280;10057;59.402;17.866;2023-01-26T00:48:20;101251.16;;;4.70;89.24
19795;BME280;10057;59.402;17.866;2023-01-26T00:50:50;101248.50;;;4.70;89.52
19795;BME280;10057;59.402;17.866;2023-01-26T00:53:17;101243.25;;;4.70;89.65
19795;BME280;10057;59.402;17.866;2023-01-26T00:55:44;101238.88;;;4.69;89.46
19795;BME280;10057;59.402;17.866;2023-01-26T00:58:10;101258.13;;;4.71;89.74
19795;BME280;10057;59.402;17.866;2023-01-26T01:00:37;101249.41;;;4.69;89.58
19795;BME280;10057;59.402;17.866;2023-01-26T01:03:05;101250.25;;;4.71;89.83
19795;BME280;10057;59.402;17.866;2023-01-26T01:05:33;101254.66;;;4.72;89.79
19795;BME280;10057;59.402;17.866;2023-01-26T01:08:00;101245.88;;;4.73;89.75
19795;BME280;10057;59.402;17.866;2023-01-26T01:10:27;101243.22;;;4.75;89.44
19795;BME280;10057;59.402;17.866;2023-01-26T01:12:54;101248.50;;;4.77;89.48
19795;BME280;10057;59.402;17.866;2023-01-26T01:15:23;101251.97;;;4.77;89.36
19795;BME280;10057;59.402;17.866;2023-01-26T01:17:50;101244.97;;;4.74;89.41
19795;BME280;10057;59.402;17.866;2023-01-26T01:20:17;101241.50;;;4.75;89.94
19795;BME280;10057;59.402;17.866;2023-01-26T01:22:43;101239.72;;;4.74;89.40
19795;BME280;10057;59.402;17.866;2023-01-26T01:25:10;101244.13;;;4.75;89.35
19795;BME280;10057;59.402;17.866;2023-01-26T01:27:37;101248.50;;;4.73;89.77
19795;BME280;10057;59.402;17.866;2023-01-26T01:30:04;101245.00;;;4.71;89.82
19795;BME280;10057;59.402;17.866;2023-01-26T01:32:36;101257.28;;;4.72;89.60
19795;BME280;10057;59.402;17.866;2023-01-26T01:35:06;101257.28;;;4.72;89.67
19795;BME280;10057;59.402;17.866;2023-01-26T01:37:33;101255.50;;;4.71;89.52
19795;BME280;10057;59.402;17.866;2023-01-26T01:40:00;101254.63;;;4.71;89.98
19795;BME280;10057;59.402;17.866;2023-01-26T01:42:26;101259.00;;;4.73;90.22
19795;BME280;10057;59.402;17.866;2023-01-26T01:48:00;101255.50;;;4.74;89.94
19795;BME280;10057;59.402;17.866;2023-01-26T01:50:32;101264.25;;;4.77;90.25
19795;BME280;10057;59.402;17.866;2023-01-26T01:53:02;101259.00;;;4.77;90.17
19795;BME280;10057;59.402;17.866;2023-01-26T01:55:30;101274.75;;;4.78;90.08
19795;BME280;10057;59.402;17.866;2023-01-26T01:57:58;101275.66;;;4.79;89.57
19795;BME280;10057;59.402;17.866;2023-01-26T02:00:27;101279.16;;;4.76;89.95
19795;BME280;10057;59.402;17.866;2023-01-26T02:03:00;101273.91;;;4.76;90.07
19795;BME280;10057;59.402;17.866;2023-01-26T02:06:06;101274.78;;;4.77;89.76
19795;BME280;10057;59.402;17.866;2023-01-26T02:08:39;101274.78;;;4.77;89.83
19795;BME280;10057;59.402;17.866;2023-01-26T02:11:12;101275.66;;;4.75;90.13
19795;BME280;10057;59.402;17.866;2023-01-26T02:13:41;101269.50;;;4.78;89.71
19795;BME280;10057;59.402;17.866;2023-01-26T02:16:08;101267.78;;;4.79;90.28
19795;BME280;10057;59.402;17.866;2023-01-26T02:18:35;101270.38;;;4.80;89.77
19795;BME280;10057;59.402;17.866;2023-01-26T02:21:14;101268.63;;;4.81;90.22
19795;BME280;10057;59.402;17.866;2023-01-26T02:26:36;101278.28;;;4.79;89.53
19795;BME280;10057;59.402;17.866;2023-01-26T02:29:07;101276.50;;;4.78;89.72
19795;BME280;10057;59.402;17.866;2023-01-26T02:31:36;101276.53;;;4.74;89.70
19795;BME280;10057;59.402;17.866;2023-01-26T02:34:03;101270.41;;;4.74;90.09
19795;BME280;10057;59.402;17.866;2023-01-26T02:36:31;101280.06;;;4.70;90.09
19795;BME280;10057;59.402;17.866;2023-01-26T02:39:19;101274.81;;;4.70;90.25
19795;BME280;10057;59.402;17.866;2023-01-26T02:41:49;101268.69;;;4.68;89.78
19795;BME280;10057;59.402;17.866;2023-01-26T02:44:36;101264.28;;;4.67;90.09
19795;BME280;10057;59.402;17.866;2023-01-26T02:47:15;101264.28;;;4.67;90.48
19795;BME280;10057;59.402;17.866;2023-01-26T02:49:43;101266.94;;;4.67;89.91
19795;BME280;10057;59.402;17.866;2023-01-26T02:52:18;101273.06;;;4.66;89.89
19795;BME280;10057;59.402;17.866;2023-01-26T02:54:45;101271.34;;;4.65;90.29
19795;BME280;10057;59.402;17.866;2023-01-26T02:57:31;101272.19;;;4.64;90.56
19795;BME280;10057;59.402;17.866;2023-01-26T03:00:00;101273.06;;;4.65;90.18
19795;BME280;10057;59.402;17.866;2023-01-26T03:02:27;101278.34;;;4.63;90.36
19795;BME280;10057;59.402;17.866;2023-01-26T03:04:53;101277.44;;;4.64;90.35
19795;BME280;10057;59.402;17.866;2023-01-26T03:07:20;101272.19;;;4.64;90.57
19795;BME280;10057;59.402;17.866;2023-01-26T03:09:47;101269.56;;;4.64;90.23
19795;BME280;10057;59.402;17.866;2023-01-26T03:12:13;101279.22;;;4.64;90.76
19795;BME280;10057;59.402;17.866;2023-01-26T03:14:40;101276.59;;;4.62;90.55
19795;BME280;10057;59.402;17.866;2023-01-26T03:17:07;101282.72;;;4.63;90.53
19795;BME280;10057;59.402;17.866;2023-01-26T03:19:33;101278.34;;;4.63;90.64
19795;BME280;10057;59.402;17.866;2023-01-26T03:22:19;101279.22;;;4.64;91.07
19795;BME280;10057;59.402;17.866;2023-01-26T03:25:04;101280.06;;;4.64;90.24
19795;BME280;10057;59.402;17.866;2023-01-26T03:27:49;101281.84;;;4.64;90.68
19795;BME280;10057;59.402;17.866;2023-01-26T03:30:18;101274.81;;;4.64;90.89
19795;BME280;10057;59.402;17.866;2023-01-26T03:32:45;101280.94;;;4.65;90.80
19795;BME280;10057;59.402;17.866;2023-01-26T03:35:12;101281.84;;;4.62;90.98
19795;BME280;10057;59.402;17.866;2023-01-26T03:37:43;101289.72;;;4.64;90.69
19795;BME280;10057;59.402;17.866;2023-01-26T03:40:11;101293.25;;;4.63;91.01
19795;BME280;10057;59.402;17.866;2023-01-26T03:42:57;101287.09;;;4.64;90.53
19795;BME280;10057;59.402;17.866;2023-01-26T03:45:42;101278.34;;;4.63;90.80
19795;BME280;10057;59.402;17.866;2023-01-26T03:48:27;101287.13;;;4.62;90.83
19795;BME280;10057;59.402;17.866;2023-01-26T03:51:12;101283.63;;;4.62;90.88
19795;BME280;10057;59.402;17.866;2023-01-26T03:53:58;101282.72;;;4.63;91.26
19795;BME280;10057;59.402;17.866;2023-01-26T03:56:43;101282.72;;;4.61;90.90
19795;BME280;10057;59.402;17.866;2023-01-26T03:59:10;101288.88;;;4.62;91.40
19795;BME280;10057;59.402;17.866;2023-01-26T04:01:45;101296.72;;;4.65;91.50
19795;BME280;10057;59.402;17.866;2023-01-26T04:04:30;101296.72;;;4.68;91.43
19795;BME280;10057;59.402;17.866;2023-01-26T04:07:15;101305.47;;;4.70;91.19
19795;BME280;10057;59.402;17.866;2023-01-26T04:10:01;101305.47;;;4.67;90.91
19795;BME280;10057;59.402;17.866;2023-01-26T04:12:28;101316.00;;;4.67;91.17
19795;BME280;10057;59.402;17.866;2023-01-26T04:14:54;101313.38;;;4.68;91.06
19795;BME280;10057;59.402;17.866;2023-01-26T04:17:40;101313.38;;;4.68;91.50
19795;BME280;10057;59.402;17.866;2023-01-26T04:20:25;101308.13;;;4.65;91.64
19795;BME280;10057;59.402;17.866;2023-01-26T04:23:19;101305.50;;;4.62;91.31
19795;BME280;10057;59.402;17.866;2023-01-26T04:25:47;101314.25;;;4.61;91.23
19795;BME280;10057;59.402;17.866;2023-01-26T04:28:14;101313.41;;;4.59;91.50
19795;BME280;10057;59.402;17.866;2023-01-26T04:30:41;101310.75;;;4.58;91.25
19795;BME280;10057;59.402;17.866;2023-01-26T04:33:07;101316.91;;;4.57;91.50
19795;BME280;10057;59.402;17.866;2023-01-26T04:35:34;101310.78;;;4.56;91.91
19795;BME280;10057;59.402;17.866;2023-01-26T04:38:01;101297.66;;;4.53;91.40
19795;BME280;10057;59.402;17.866;2023-01-26T04:40:27;101310.75;;;4.58;91.85
19795;BME280;10057;59.402;17.866;2023-01-26T04:42:54;101312.53;;;4.57;91.37
19795;BME280;10057;59.402;17.866;2023-01-26T04:45:21;101320.41;;;4.57;91.76
19795;BME280;10057;59.402;17.866;2023-01-26T04:47:47;101319.56;;;4.55;91.43
19795;BME280;10057;59.402;17.866;2023-01-26T04:50:15;101314.31;;;4.55;91.28
19795;BME280;10057;59.402;17.866;2023-01-26T04:52:41;101310.78;;;4.53;91.79
19795;BME280;10057;59.402;17.866;2023-01-26T04:55:08;101306.41;;;4.52;91.73
19795;BME280;10057;59.402;17.866;2023-01-26T04:57:35;101310.78;;;4.50;91.94
19795;BME280;10057;59.402;17.866;2023-01-26T05:00:02;101319.53;;;4.50;91.98
19795;BME280;10057;59.402;17.866;2023-01-26T05:02:29;101324.81;;;4.49;92.03
19795;BME280;10057;59.402;17.866;2023-01-26T05:04:55;101339.69;;;4.50;92.06
19795;BME280;10057;59.402;17.866;2023-01-26T05:07:22;101339.69;;;4.50;91.96
19795;BME280;10057;59.402;17.866;2023-01-26T05:09:49;101339.72;;;4.48;91.80
19795;BME280;10057;59.402;17.866;2023-01-26T05:12:15;101340.56;;;4.47;92.20
19795;BME280;10057;59.402;17.866;2023-01-26T05:15:00;101347.59;;;4.48;91.92
19795;BME280;10057;59.402;17.866;2023-01-26T05:17:27;101352.84;;;4.47;92.28
19795;BME280;10057;59.402;17.866;2023-01-26T05:19:54;101355.47;;;4.47;91.54
19795;BME280;10057;59.402;17.866;2023-01-26T05:22:21;101355.47;;;4.48;91.78
19795;BME280;10057;59.402;17.866;2023-01-26T05:24:47;101364.22;;;4.50;92.25
19795;BME280;10057;59.402;17.866;2023-01-26T05:27:14;101356.34;;;4.52;92.11
19795;BME280;10057;59.402;17.866;2023-01-26T05:29:47;101365.09;;;4.56;92.38
19795;BME280;10057;59.402;17.866;2023-01-26T05:32:15;101368.56;;;4.61;91.85
19795;BME280;10057;59.402;17.866;2023-01-26T05:34:42;101372.09;;;4.60;91.91
19795;BME280;10057;59.402;17.866;2023-01-26T05:37:08;101367.72;;;4.60;91.78
19795;BME280;10057;59.402;17.866;2023-01-26T05:39:35;101372.06;;;4.61;92.12
19795;BME280;10057;59.402;17.866;2023-01-26T05:42:02;101380.88;;;4.62;92.03
19795;BME280;10057;59.402;17.866;2023-01-26T05:44:29;101379.97;;;4.63;92.33
19795;BME280;10057;59.402;17.866;2023-01-26T05:46:55;101384.34;;;4.64;92.26
19795;BME280;10057;59.402;17.866;2023-01-26T05:49:22;101393.09;;;4.64;92.01
19795;BME280;10057;59.402;17.866;2023-01-26T05:51:49;101396.59;;;4.65;92.28
19795;BME280;10057;59.402;17.866;2023-01-26T05:54:16;101400.09;;;4.67;92.25
19795;BME280;10057;59.402;17.866;2023-01-26T05:56:42;101402.72;;;4.70;92.08
19795;BME280;10057;59.402;17.866;2023-01-26T05:59:09;101399.22;;;4.74;92.01
19795;BME280;10057;59.402;17.866;2023-01-26T06:01:36;101406.22;;;4.80;92.68
19795;BME280;10057;59.402;17.866;2023-01-26T06:04:03;101409.69;;;4.85;92.47
19795;BME280;10057;59.402;17.866;2023-01-26T06:06:29;101407.06;;;4.89;92.29
19795;BME280;10057;59.402;17.866;2023-01-26T06:08:57;101421.94;;;4.92;92.18
19795;BME280;10057;59.402;17.866;2023-01-26T06:11:24;101424.56;;;4.95;92.53
19795;BME280;10057;59.402;17.866;2023-01-26T06:13:50;101432.44;;;4.98;92.44
19795;BME280;10057;59.402;17.866;2023-01-26T06:16:17;101435.06;;;5.03;91.91
19795;BME280;10057;59.402;17.866;2023-01-26T06:18:47;101435.94;;;5.03;92.01
19795;BME280;10057;59.402;17.866;2023-01-26T06:21:15;101438.56;;;5.06;92.48
19795;BME280;10057;59.402;17.866;2023-01-26T06:23:42;101445.56;;;5.07;91.53
19795;BME280;10057;59.402;17.866;2023-01-26T06:26:09;101456.09;;;5.10;92.12
19795;BME280;10057;59.402;17.866;2023-01-26T06:28:36;101449.94;;;5.11;92.11
19795;BME280;10057;59.402;17.866;2023-01-26T06:31:05;101458.72;;;5.13;92.04
19795;BME280;10057;59.402;17.866;2023-01-26T06:33:34;101465.72;;;5.14;91.91
19795;BME280;10057;59.402;17.866;2023-01-26T06:36:07;101460.44;;;5.14;92.29
19795;BME280;10057;59.402;17.866;2023-01-26T06:38:35;101464.81;;;5.18;91.94
19795;BME280;10057;59.402;17.866;2023-01-26T06:41:06;101470.06;;;5.18;92.09
19795;BME280;10057;59.402;17.866;2023-01-26T06:43:34;101472.72;;;5.20;91.74
19795;BME280;10057;59.402;17.866;2023-01-26T06:46:02;101472.72;;;5.20;91.59
19795;BME280;10057;59.402;17.866;2023-01-26T06:48:32;101485.88;;;5.23;91.68
19795;BME280;10057;59.402;17.866;2023-01-26T06:51:04;101478.84;;;5.23;91.68
19795;BME280;10057;59.402;17.866;2023-01-26T06:53:57;101497.25;;;5.23;91.53
19795;BME280;10057;59.402;17.866;2023-01-26T06:56:24;101502.53;;;5.23;91.86
19795;BME280;10057;59.402;17.866;2023-01-26T06:58:54;101494.63;;;5.22;92.13
19795;BME280;10057;59.402;17.866;2023-01-26T07:01:25;101499.88;;;5.22;92.07
19795;BME280;10057;59.402;17.866;2023-01-26T07:03:53;101504.25;;;5.21;91.93
19795;BME280;10057;59.402;17.866;2023-01-26T07:06:20;101504.28;;;5.17;91.25
19795;BME280;10057;59.402;17.866;2023-01-26T07:08:47;101516.53;;;5.19;91.98
19795;BME280;10057;59.402;17.866;2023-01-26T07:11:14;101509.53;;;5.18;92.02
19795;BME280;10057;59.402;17.866;2023-01-26T07:13:42;101523.56;;;5.17;91.46
19795;BME280;10057;59.402;17.866;2023-01-26T07:16:14;101521.81;;;5.15;91.42
19795;BME280;10057;59.402;17.866;2023-01-26T07:18:41;101532.38;;;5.13;91.74
19795;BME280;10057;59.402;17.866;2023-01-26T07:21:15;101536.75;;;5.13;92.07
19795;BME280;10057;59.402;17.866;2023-01-26T07:23:44;101547.25;;;5.14;91.62
19795;BME280;10057;59.402;17.866;2023-01-26T07:26:12;101549.03;;;5.14;91.35
19795;BME280;10057;59.402;17.866;2023-01-26T07:28:39;101559.53;;;5.12;91.50
19795;BME280;10057;59.402;17.866;2023-01-26T07:31:07;101556.03;;;5.12;91.34
19795;BME280;10057;59.402;17.866;2023-01-26T07:33:34;101570.94;;;5.11;91.39
19795;BME280;10057;59.402;17.866;2023-01-26T07:36:01;101576.19;;;5.11;91.50
19795;BME280;10057;59.402;17.866;2023-01-26T07:38:29;101581.47;;;5.10;91.71
19795;BME280;10057;59.402;17.866;2023-01-26T07:40:56;101572.72;;;5.06;90.97
19795;BME280;10057;59.402;17.866;2023-01-26T07:43:23;101574.44;;;5.04;90.90
19795;BME280;10057;59.402;17.866;2023-01-26T07:45:52;101584.97;;;5.01;91.50
19795;BME280;10057;59.402;17.866;2023-01-26T07:48:21;101596.38;;;5.00;91.22
19795;BME280;10057;59.402;17.866;2023-01-26T07:50:49;101592.88;;;4.96;90.87
19795;BME280;10057;59.402;17.866;2023-01-26T07:53:17;101596.38;;;4.94;90.75
19795;BME280;10057;59.402;17.866;2023-01-26T07:55:48;101603.41;;;4.90;91.04
19795;BME280;10057;59.402;17.866;2023-01-26T07:58:15;101613.03;;;4.87;90.42
19795;BME280;10057;59.402;17.866;2023-01-26T08:00:44;101617.41;;;4.83;90.79
19795;BME280;10057;59.402;17.866;2023-01-26T08:03:13;101612.16;;;4.80;90.53
19795;BME280;10057;59.402;17.866;2023-01-26T08:05:40;101620.06;;;4.79;90.49
19795;BME280;10057;59.402;17.866;2023-01-26T08:08:08;101621.78;;;4.75;90.55
19795;BME280;10057;59.402;17.866;2023-01-26T08:10:35;101623.53;;;4.73;90.25
19795;BME280;10057;59.402;17.866;2023-01-26T08:13:02;101631.44;;;4.70;90.32
19795;BME280;10057;59.402;17.866;2023-01-26T08:15:29;101630.53;;;4.68;90.68
19795;BME280;10057;59.402;17.866;2023-01-26T08:17:56;101639.31;;;4.65;90.20
19795;BME280;10057;59.402;17.866;2023-01-26T08:20:22;101634.91;;;4.61;90.38
19795;BME280;10057;59.402;17.866;2023-01-26T08:22:49;101641.03;;;4.57;90.24
19795;BME280;10057;59.402;17.866;2023-01-26T08:25:16;101639.28;;;4.53;89.94
19795;BME280;10057;59.402;17.866;2023-01-26T08:27:42;101658.53;;;4.50;90.05
19795;BME280;10057;59.402;17.866;2023-01-26T08:30:10;101657.69;;;4.48;89.91
19795;BME280;10057;59.402;17.866;2023-01-26T08:32:37;101659.44;;;4.48;89.56
19795;BME280;10057;59.402;17.866;2023-01-26T08:35:04;101669.94;;;4.45;89.84
19795;BME280;10057;59.402;17.866;2023-01-26T08:37:32;101670.78;;;4.41;89.97
19795;BME280;10057;59.402;17.866;2023-01-26T08:39:59;101677.78;;;4.39;89.93
19795;BME280;10057;59.402;17.866;2023-01-26T08:42:25;101681.28;;;4.35;89.44
19795;BME280;10057;59.402;17.866;2023-01-26T08:44:52;101686.53;;;4.32;89.74
19795;BME280;10057;59.402;17.866;2023-01-26T08:47:19;101689.13;;;4.30;89.53
19795;BME280;10057;59.402;17.866;2023-01-26T08:49:46;101676.88;;;4.26;89.27
19795;BME280;10057;59.402;17.866;2023-01-26T08:52:12;101693.50;;;4.25;89.26
19795;BME280;10057;59.402;17.866;2023-01-26T08:54:39;101702.25;;;4.25;89.35
19795;BME280;10057;59.402;17.866;2023-01-26T08:57:06;101702.25;;;4.25;89.25
19795;BME280;10057;59.402;17.866;2023-01-26T08:59:32;101713.66;;;4.26;89.38
19795;BME280;10057;59.402;17.866;2023-01-26T09:01:59;101718.91;;;4.24;89.32
19795;BME280;10057;59.402;17.866;2023-01-26T09:04:26;101723.28;;;4.24;89.10
19795;BME280;10057;59.402;17.866;2023-01-26T09:06:53;101716.25;;;4.21;88.87
19795;BME280;10057;59.402;17.866;2023-01-26T09:09:19;101714.50;;;4.23;89.17
19795;BME280;10057;59.402;17.866;2023-01-26T09:11:46;101718.91;;;4.24;89.07
19795;BME280;10057;59.402;17.866;2023-01-26T09:14:13;101728.53;;;4.25;88.64
19795;BME280;10057;59.402;17.866;2023-01-26T09:16:40;101729.41;;;4.26;88.93
19795;BME280;10057;59.402;17.866;2023-01-26T09:19:07;101729.41;;;4.24;88.58
19795;BME280;10057;59.402;17.866;2023-01-26T09:21:33;101735.53;;;4.23;88.77
19795;BME280;10057;59.402;17.866;2023-01-26T09:24:00;101732.91;;;4.22;88.47
19795;BME280;10057;59.402;17.866;2023-01-26T09:26:28;101747.75;;;4.18;88.75
19795;BME280;10057;59.402;17.866;2023-01-26T09:28:56;101743.38;;;4.19;88.92
19795;BME280;10057;59.402;17.866;2023-01-26T09:31:23;101741.63;;;4.19;88.49
19795;BME280;10057;59.402;17.866;2023-01-26T09:33:50;101739.03;;;4.21;88.72
19795;BME280;10057;59.402;17.866;2023-01-26T09:36:17;101751.28;;;4.23;88.13
19795;BME280;10057;59.402;17.866;2023-01-26T09:38:44;101754.81;;;4.25;88.29
19795;BME280;10057;59.402;17.866;2023-01-26T09:44:18;101759.19;;;4.26;88.38
19795;BME280;10057;59.402;17.866;2023-01-26T09:52:27;101758.34;;;4.32;88.48
19795;BME280;10057;59.402;17.866;2023-01-26T09:54:58;101759.22;;;4.37;88.35
19795;BME280;10057;59.402;17.866;2023-01-26T09:58:12;101768.00;;;4.39;88.11
19795;BME280;10057;59.402;17.866;2023-01-26T10:02:54;101772.38;;;4.37;87.98
19795;BME280;10057;59.402;17.866;2023-01-26T10:07:56;101792.50;;;4.35;87.31
19795;BME280;10057;59.402;17.866;2023-01-26T10:10:28;101793.34;;;4.30;87.46
19795;BME280;10057;59.402;17.866;2023-01-26T10:12:58;101795.97;;;4.26;87.67
19795;BME280;10057;59.402;17.866;2023-01-26T10:15:37;101803.81;;;4.23;87.50
19795;BME280;10057;59.402;17.866;2023-01-26T10:18:08;101812.56;;;4.22;86.91
19795;BME280;10057;59.402;17.866;2023-01-26T10:20:38;101816.09;;;4.21;87.49
19795;BME280;10057;59.402;17.866;2023-01-26T10:23:16;101825.72;;;4.22;87.24
19795;BME280;10057;59.402;17.866;2023-01-26T10:25:44;101830.09;;;4.23;86.95
19795;BME280;10057;59.402;17.866;2023-01-26T10:28:24;101825.75;;;4.25;86.93
19795;BME280;10057;59.402;17.866;2023-01-26T10:30:52;101834.50;;;4.26;86.97
19795;BME280;10057;59.402;17.866;2023-01-26T10:33:33;101835.38;;;4.26;86.66
19795;BME280;10057;59.402;17.866;2023-01-26T10:36:02;101845.88;;;4.25;86.94
19795;BME280;10057;59.402;17.866;2023-01-26T10:41:01;101845.84;;;4.23;86.65
19795;BME280;10057;59.402;17.866;2023-01-26T10:43:36;101845.81;;;4.20;86.47
19795;BME280;10057;59.402;17.866;2023-01-26T10:46:07;101852.84;;;4.18;86.33
19795;BME280;10057;59.402;17.866;2023-01-26T10:48:53;101844.09;;;4.18;86.47
19795;BME280;10057;59.402;17.866;2023-01-26T10:51:26;101855.44;;;4.17;85.87
19795;BME280;10057;59.402;17.866;2023-01-26T10:57:26;101864.16;;;4.13;85.69
19795;BME280;10057;59.402;17.866;2023-01-26T11:00:00;101861.53;;;4.08;85.37
19795;BME280;10057;59.402;17.866;2023-01-26T11:02:34;101860.59;;;4.03;85.49
19795;BME280;10057;59.402;17.866;2023-01-26T11:07:40;101875.44;;;3.98;85.30
19795;BME280;10057;59.402;17.866;2023-01-26T11:12:46;101882.41;;;3.93;85.07
19795;BME280;10057;59.402;17.866;2023-01-26T11:15:24;101876.25;;;3.89;84.60
19795;BME280;10057;59.402;17.866;2023-01-26T11:18:01;101891.13;;;3.87;84.58
19795;BME280;10057;59.402;17.866;2023-01-26T11:20:50;101884.09;;;3.86;84.63
19795;BME280;10057;59.402;17.866;2023-01-26T11:23:31;101889.34;;;3.85;84.74
19795;BME280;10057;59.402;17.866;2023-01-26T11:40:34;101908.50;;;3.74;84.33
19795;BME280;10057;59.402;17.866;2023-01-26T11:57:33;101909.41;;;3.78;84.06
19795;BME280;10057;59.402;17.866;2023-01-26T12:00:25;101913.78;;;3.79;83.74
19795;BME280;10057;59.402;17.866;2023-01-26T12:03:03;101914.66;;;3.76;83.61
19795;BME280;10057;59.402;17.866;2023-01-26T12:05:37;101917.31;;;3.79;83.70
19795;BME280;10057;59.402;17.866;2023-01-26T12:08:22;101933.06;;;3.79;83.43
19795;BME280;10057;59.402;17.866;2023-01-26T12:11:04;101936.56;;;3.82;83.47
19795;BME280;10057;59.402;17.866;2023-01-26T12:16:28;101926.13;;;3.89;83.31
19795;BME280;10057;59.402;17.866;2023-01-26T12:19:05;101931.41;;;3.92;83.00
19795;BME280;10057;59.402;17.866;2023-01-26T12:21:40;101926.16;;;3.92;82.66
19795;BME280;10057;59.402;17.866;2023-01-26T12:24:13;101927.94;;;3.93;83.13
19795;BME280;10057;59.402;17.866;2023-01-26T12:27:07;101938.47;;;3.98;82.68
19795;BME280;10057;59.402;17.866;2023-01-26T12:32:26;101951.56;;;3.95;82.18
19795;BME280;10057;59.402;17.866;2023-01-26T12:34:53;101950.66;;;3.93;82.02
19795;BME280;10057;59.402;17.866;2023-01-26T12:45:35;101952.41;;;3.91;82.15
19795;BME280;10057;59.402;17.866;2023-01-26T12:53:13;101969.88;;;3.89;81.42
19795;BME280;10057;59.402;17.866;2023-01-26T12:55:45;101981.25;;;3.89;81.35
19795;BME280;10057;59.402;17.866;2023-01-26T12:58:20;101980.31;;;3.83;81.18
19795;BME280;10057;59.402;17.866;2023-01-26T13:03:30;101988.97;;;3.72;80.91
19795;BME280;10057;59.402;17.866;2023-01-26T13:11:00;101996.75;;;3.65;80.50
19795;BME280;10057;59.402;17.866;2023-01-26T13:13:51;102009.88;;;3.65;80.31
19795;BME280;10057;59.402;17.866;2023-01-26T13:18:49;102011.50;;;3.53;80.14
19795;BME280;10057;59.402;17.866;2023-01-26T13:26:46;102028.88;;;3.44;79.88
19795;BME280;10057;59.402;17.866;2023-01-26T13:34:54;102037.50;;;3.33;79.18
19795;BME280;10057;59.402;17.866;2023-01-26T13:37:35;102042.69;;;3.30;79.15
19795;BME280;10057;59.402;17.866;2023-01-26T13:40:08;102047.91;;;3.27;79.11
19795;BME280;10057;59.402;17.866;2023-01-26T13:42:50;102058.34;;;3.24;79.04
19795;BME280;10057;59.402;17.866;2023-01-26T13:47:51;102056.53;;;3.19;79.25
19795;BME280;10057;59.402;17.866;2023-01-26T13:50:31;102065.25;;;3.18;79.07
19795;BME280;10057;59.402;17.866;2023-01-26T13:52:59;102061.69;;;3.14;79.01
19795;BME280;10057;59.402;17.866;2023-01-26T13:55:30;102056.44;;;3.13;78.95
19795;BME280;10057;59.402;17.866;2023-01-26T13:58:16;102065.19;;;3.13;78.68
19795;BME280;10057;59.402;17.866;2023-01-26T14:01:05;102065.13;;;3.10;78.76
19795;BME280;10057;59.402;17.866;2023-01-26T14:03:32;102080.81;;;3.07;78.75
19795;BME280;10057;59.402;17.866;2023-01-26T14:06:17;102080.78;;;3.04;78.69
19795;BME280;10057;59.402;17.866;2023-01-26T14:08:51;102077.22;;;3.00;78.67
19795;BME280;10057;59.402;17.866;2023-01-26T14:11:22;102085.03;;;2.97;78.67
19795;BME280;10057;59.402;17.866;2023-01-26T14:13:52;102090.28;;;2.96;78.69
19795;BME280;10057;59.402;17.866;2023-01-26T14:16:24;102095.47;;;2.91;78.41
19795;BME280;10057;59.402;17.866;2023-01-26T14:19:21;102102.41;;;2.89;78.37
19795;BME280;10057;59.402;17.866;2023-01-26T14:24:36;102096.19;;;2.82;78.38
19795;BME280;10057;59.402;17.866;2023-01-26T14:27:28;102107.50;;;2.80;78.59
19795;BME280;10057;59.402;17.866;2023-01-26T14:29:57;102117.03;;;2.75;78.16
19795;BME280;10057;59.402;17.866;2023-01-26T14:32:24;102123.97;;;2.71;78.57
19795;BME280;10057;59.402;17.866;2023-01-26T14:34:59;102128.31;;;2.71;78.28
19795;BME280;10057;59.402;17.866;2023-01-26T14:37:26;102126.53;;;2.70;78.25
19795;BME280;10057;59.402;17.866;2023-01-26T14:40:18;102141.34;;;2.66;77.79
19795;BME280;10057;59.402;17.866;2023-01-26T14:42:50;102145.69;;;2.64;78.10
19795;BME280;10057;59.402;17.866;2023-01-26T14:45:25;102145.56;;;2.59;78.12
19795;BME280;10057;59.402;17.866;2023-01-26T14:47:56;102155.13;;;2.56;78.17
19795;BME280;10057;59.402;17.866;2023-01-26T14:50:26;102157.75;;;2.56;78.16
19795;BME280;10057;59.402;17.866;2023-01-26T14:52:54;102165.53;;;2.53;77.94
19795;BME280;10057;59.402;17.866;2023-01-26T14:55:25;102171.63;;;2.50;78.26